sensor_id;sensor_type;location;lat;lon;timestamp;pressure;altitude;pressure_sealevel;temperature;humidity
34482;BME280;20720;48.886;9.388;2023-04-15T00:02:20;97447.78;;;8.70;100.00
34482;BME280;20720;48.886;9.388;2023-04-15T00:04:46;97454.50;;;8.52;100.00
34482;BME280;20720;48.886;9.388;2023-04-15T00:07:12;97447.22;;;7.91;100.00
34482;BME280;20720;48.886;9.388;2023-04-15T00:09:37;97445.97;;;8.00;100.00
34482;BME280;20720;48.886;9.388;2023-04-15T00:12:04;97445.59;;;8.67;100.00
34482;BME280;20720;48.886;9.388;2023-04-15T00:14:29;97446.50;;;8.47;100.00
34482;BME280;20720;48.886;9.388;2023-04-15T00:16:55;97445.19;;;7.93;100.00
34482;BME280;20720;48.886;9.388;2023-04-15T00:19:22;97441.19;;;7.31;100.00
34482;BME280;20720;48.886;9.388;2023-04-15T00:21:48;97438.34;;;7.00;100.00
34482;BME280;20720;48.886;9.388;2023-04-15T00:24:13;97432.50;;;7.96;100.00
34482;BME280;20720;48.886;9.388;2023-04-15T00:26:38;97441.41;;;8.59;100.00
34482;BME280;20720;48.886;9.388;2023-04-15T00:29:04;97441.03;;;8.49;100.00
34482;BME280;20720;48.886;9.388;2023-04-15T00:31:30;97446.66;;;8.46;100.00
34482;BME280;20720;48.886;9.388;2023-04-15T00:33:55;97445.28;;;8.88;100.00
34482;BME280;20720;48.886;9.388;2023-04-15T00:36:21;97440.75;;;8.00;100.00
34482;BME280;20720;48.886;9.388;2023-04-15T00:38:47;97437.59;;;8.48;100.00
34482;BME280;20720;48.886;9.388;2023-04-15T00:41:12;97433.88;;;8.76;100.00
34482;BME280;20720;48.886;9.388;2023-04-15T00:43:37;97438.75;;;8.66;100.00
34482;BME280;20720;48.886;9.388;2023-04-15T00:46:04;97433.66;;;8.26;100.00
34482;BME280;20720;48.886;9.388;2023-04-15T00:48:30;97434.53;;;8.65;100.00
34482;BME280;20720;48.886;9.388;2023-04-15T00:50:56;97441.78;;;8.63;100.00
34482;BME280;20720;48.886;9.388;2023-04-15T00:53:21;97440.16;;;8.62;100.00
34482;BME280;20720;48.886;9.388;2023-04-15T00:55:47;97435.97;;;8.54;100.00
34482;BME280;20720;48.886;9.388;2023-04-15T00:58:13;97435.38;;;8.59;100.00
34482;BME280;20720;48.886;9.388;2023-04-15T01:00:38;97429.44;;;8.32;100.00
34482;BME280;20720;48.886;9.388;2023-04-15T01:03:04;97434.59;;;8.51;100.00
34482;BME280;20720;48.886;9.388;2023-04-15T01:05:30;97439.84;;;8.51;100.00
34482;BME280;20720;48.886;9.388;2023-04-15T01:07:56;97441.06;;;8.42;100.00
34482;BME280;20720;48.886;9.388;2023-04-15T01:10:22;97439.69;;;8.20;100.00
34482;BME280;20720;48.886;9.388;2023-04-15T01:12:47;97435.81;;;8.49;100.00
34482;BME280;20720;48.886;9.388;2023-04-15T01:15:12;97435.03;;;8.35;100.00
34482;BME280;20720;48.886;9.388;2023-04-15T01:17:38;97428.41;;;8.33;100.00
34482;BME280;20720;48.886;9.388;2023-04-15T01:20:04;97430.25;;;8.32;100.00
34482;BME280;20720;48.886;9.388;2023-04-15T01:22:32;97432.06;;;8.25;100.00
34482;BME280;20720;48.886;9.388;2023-04-15T01:25:06;97431.47;;;8.10;100.00
34482;BME280;20720;48.886;9.388;2023-04-15T01:27:33;97423.81;;;8.28;100.00
34482;BME280;20720;48.886;9.388;2023-04-15T01:29:59;97424.22;;;8.19;100.00
34482;BME280;20720;48.886;9.388;2023-04-15T01:32:25;97421.59;;;8.19;100.00
34482;BME280;20720;48.886;9.388;2023-04-15T01:34:51;97420.19;;;8.23;100.00
34482;BME280;20720;48.886;9.388;2023-04-15T01:37:16;97423.03;;;8.02;100.00
34482;BME280;20720;48.886;9.388;2023-04-15T01:39:41;97410.53;;;8.17;100.00
34482;BME280;20720;48.886;9.388;2023-04-15T01:42:07;97418.00;;;8.07;100.00
34482;BME280;20720;48.886;9.388;2023-04-15T01:44:32;97414.38;;;8.01;100.00
34482;BME280;20720;48.886;9.388;2023-04-15T01:46:57;97417.88;;;7.69;100.00
34482;BME280;20720;48.886;9.388;2023-04-15T01:49:23;97427.13;;;7.58;100.00
34482;BME280;20720;48.886;9.388;2023-04-15T01:51:48;97416.47;;;6.28;100.00
34482;BME280;20720;48.886;9.388;2023-04-15T01:54:14;97420.72;;;7.41;100.00
34482;BME280;20720;48.886;9.388;2023-04-15T01:56:39;97431.50;;;7.97;100.00
34482;BME280;20720;48.886;9.388;2023-04-15T01:59:04;97432.69;;;8.01;100.00
34482;BME280;20720;48.886;9.388;2023-04-15T02:01:30;97430.91;;;8.02;100.00
34482;BME280;20720;48.886;9.388;2023-04-15T02:03:56;97427.69;;;8.00;100.00
34482;BME280;20720;48.886;9.388;2023-04-15T02:06:21;97424.69;;;7.83;100.00
34482;BME280;20720;48.886;9.388;2023-04-15T02:08:46;97426.72;;;7.81;100.00
34482;BME280;20720;48.886;9.388;2023-04-15T02:11:11;97419.88;;;7.67;100.00
34482;BME280;20720;48.886;9.388;2023-04-15T02:13:37;97427.91;;;7.79;100.00
34482;BME280;20720;48.886;9.388;2023-04-15T02:16:02;97421.72;;;7.34;100.00
34482;BME280;20720;48.886;9.388;2023-04-15T02:18:27;97420.53;;;6.43;100.00
34482;BME280;20720;48.886;9.388;2023-04-15T02:20:53;97419.91;;;7.28;100.00
34482;BME280;20720;48.886;9.388;2023-04-15T02:23:18;97424.91;;;7.55;100.00
34482;BME280;20720;48.886;9.388;2023-04-15T02:25:43;97416.47;;;6.34;100.00
34482;BME280;20720;48.886;9.388;2023-04-15T02:28:09;97422.13;;;7.24;100.00
34482;BME280;20720;48.886;9.388;2023-04-15T02:30:35;97423.53;;;7.40;100.00
34482;BME280;20720;48.886;9.388;2023-04-15T02:33:00;97429.13;;;6.98;100.00
34482;BME280;20720;48.886;9.388;2023-04-15T02:35:26;97425.53;;;7.31;100.00
34482;BME280;20720;48.886;9.388;2023-04-15T02:37:51;97420.09;;;7.39;100.00
34482;BME280;20720;48.886;9.388;2023-04-15T02:40:17;97425.47;;;6.86;100.00
34482;BME280;20720;48.886;9.388;2023-04-15T02:42:43;97428.72;;;7.27;100.00
34482;BME280;20720;48.886;9.388;2023-04-15T02:45:09;97425.94;;;7.35;100.00
34482;BME280;20720;48.886;9.388;2023-04-15T02:47:36;97427.75;;;7.28;100.00
34482;BME280;20720;48.886;9.388;2023-04-15T02:50:06;97429.13;;;7.24;100.00
34482;BME280;20720;48.886;9.388;2023-04-15T02:52:31;97424.28;;;7.01;100.00
34482;BME280;20720;48.886;9.388;2023-04-15T02:54:57;97424.94;;;7.23;100.00
34482;BME280;20720;48.886;9.388;2023-04-15T02:57:26;97420.66;;;7.02;100.00
34482;BME280;20720;48.886;9.388;2023-04-15T02:59:52;97417.44;;;7.00;100.00
34482;BME280;20720;48.886;9.388;2023-04-15T03:02:17;97422.09;;;7.05;100.00
34482;BME280;20720;48.886;9.388;2023-04-15T03:04:43;97422.69;;;6.94;100.00
34482;BME280;20720;48.886;9.388;2023-04-15T03:07:08;97426.88;;;6.88;100.00
34482;BME280;20720;48.886;9.388;2023-04-15T03:09:33;97415.88;;;7.38;100.00
34482;BME280;20720;48.886;9.388;2023-04-15T03:11:59;97419.91;;;7.54;100.00
34482;BME280;20720;48.886;9.388;2023-04-15T03:14:24;97423.72;;;7.51;100.00
34482;BME280;20720;48.886;9.388;2023-04-15T03:16:50;97424.09;;;7.03;100.00
34482;BME280;20720;48.886;9.388;2023-04-15T03:19:16;97427.13;;;7.65;100.00
34482;BME280;20720;48.886;9.388;2023-04-15T03:21:41;97420.09;;;7.72;100.00
34482;BME280;20720;48.886;9.388;2023-04-15T03:24:06;97415.44;;;6.89;100.00
34482;BME280;20720;48.886;9.388;2023-04-15T03:26:31;97416.06;;;7.50;100.00
34482;BME280;20720;48.886;9.388;2023-04-15T03:28:57;97423.13;;;7.63;100.00
34482;BME280;20720;48.886;9.388;2023-04-15T03:31:23;97419.06;;;7.86;100.00
34482;BME280;20720;48.886;9.388;2023-04-15T03:33:48;97419.47;;;7.83;100.00
34482;BME280;20720;48.886;9.388;2023-04-15T03:36:14;97424.47;;;7.98;100.00
34482;BME280;20720;48.886;9.388;2023-04-15T03:38:40;97414.47;;;7.29;100.00
34482;BME280;20720;48.886;9.388;2023-04-15T03:41:06;97413.88;;;7.34;100.00
34482;BME280;20720;48.886;9.388;2023-04-15T03:43:31;97409.88;;;7.38;100.00
34482;BME280;20720;48.886;9.388;2023-04-15T03:45:56;97398.38;;;7.06;100.00
34482;BME280;20720;48.886;9.388;2023-04-15T03:48:22;97401.34;;;7.82;100.00
34482;BME280;20720;48.886;9.388;2023-04-15T03:50:47;97412.63;;;7.82;100.00
34482;BME280;20720;48.886;9.388;2023-04-15T03:53:13;97404.38;;;7.85;100.00
34482;BME280;20720;48.886;9.388;2023-04-15T03:55:38;97414.41;;;7.88;100.00
34482;BME280;20720;48.886;9.388;2023-04-15T03:58:04;97414.25;;;7.63;100.00
34482;BME280;20720;48.886;9.388;2023-04-15T04:00:29;97413.84;;;7.73;100.00
34482;BME280;20720;48.886;9.388;2023-04-15T04:02:55;97418.66;;;7.83;100.00
34482;BME280;20720;48.886;9.388;2023-04-15T04:05:20;97411.81;;;7.69;100.00
34482;BME280;20720;48.886;9.388;2023-04-15T04:07:46;97409.81;;;6.92;100.00
34482;BME280;20720;48.886;9.388;2023-04-15T04:10:11;97404.84;;;7.17;100.00
34482;BME280;20720;48.886;9.388;2023-04-15T04:12:37;97409.44;;;7.54;100.00
34482;BME280;20720;48.886;9.388;2023-04-15T04:15:02;97413.44;;;7.63;100.00
34482;BME280;20720;48.886;9.388;2023-04-15T04:17:28;97410.66;;;7.32;100.00
34482;BME280;20720;48.886;9.388;2023-04-15T04:19:53;97422.31;;;7.49;100.00
34482;BME280;20720;48.886;9.388;2023-04-15T04:22:21;97415.06;;;7.64;100.00
34482;BME280;20720;48.886;9.388;2023-04-15T04:24:48;97421.91;;;7.58;100.00
34482;BME280;20720;48.886;9.388;2023-04-15T04:27:13;97429.56;;;7.34;100.00
34482;BME280;20720;48.886;9.388;2023-04-15T04:29:38;97421.91;;;7.52;100.00
34482;BME280;20720;48.886;9.388;2023-04-15T04:32:03;97427.53;;;7.49;100.00
34482;BME280;20720;48.886;9.388;2023-04-15T04:34:29;97427.13;;;7.32;100.00
34482;BME280;20720;48.886;9.388;2023-04-15T04:36:54;97423.91;;;7.50;100.00
34482;BME280;20720;48.886;9.388;2023-04-15T04:39:20;97430.16;;;7.29;100.00
34482;BME280;20720;48.886;9.388;2023-04-15T04:41:45;97430.72;;;6.99;100.00
34482;BME280;20720;48.886;9.388;2023-04-15T04:44:10;97431.50;;;6.26;100.00
34482;BME280;20720;48.886;9.388;2023-04-15T04:46:35;97430.47;;;6.81;100.00
34482;BME280;20720;48.886;9.388;2023-04-15T04:49:01;97438.97;;;7.22;100.00
34482;BME280;20720;48.886;9.388;2023-04-15T04:51:26;97446.81;;;7.35;100.00
34482;BME280;20720;48.886;9.388;2023-04-15T04:53:52;97433.16;;;7.20;100.00
34482;BME280;20720;48.886;9.388;2023-04-15T04:56:18;97436.91;;;6.91;100.00
34482;BME280;20720;48.886;9.388;2023-04-15T04:58:43;97434.34;;;7.11;100.00
34482;BME280;20720;48.886;9.388;2023-04-15T05:01:09;97436.38;;;7.22;100.00
34482;BME280;20720;48.886;9.388;2023-04-15T05:03:34;97435.97;;;7.25;100.00
34482;BME280;20720;48.886;9.388;2023-04-15T05:05:59;97438.94;;;6.96;100.00
34482;BME280;20720;48.886;9.388;2023-04-15T05:08:27;97432.53;;;6.38;100.00
34482;BME280;20720;48.886;9.388;2023-04-15T05:10:52;97431.56;;;7.19;100.00
34482;BME280;20720;48.886;9.388;2023-04-15T05:13:17;97435.38;;;7.36;100.00
34482;BME280;20720;48.886;9.388;2023-04-15T05:15:42;97435.59;;;7.47;100.00
34482;BME280;20720;48.886;9.388;2023-04-15T05:18:08;97433.16;;;7.46;100.00
34482;BME280;20720;48.886;9.388;2023-04-15T05:20:34;97438.41;;;7.52;100.00
34482;BME280;20720;48.886;9.388;2023-04-15T05:22:59;97434.19;;;7.45;100.00
34482;BME280;20720;48.886;9.388;2023-04-15T05:25:24;97431.16;;;7.22;100.00
34482;BME280;20720;48.886;9.388;2023-04-15T05:27:50;97439.53;;;6.85;100.00
34482;BME280;20720;48.886;9.388;2023-04-15T05:30:15;97441.00;;;7.59;100.00
34482;BME280;20720;48.886;9.388;2023-04-15T05:32:41;97445.22;;;7.73;100.00
34482;BME280;20720;48.886;9.388;2023-04-15T05:35:06;97451.22;;;7.80;100.00
34482;BME280;20720;48.886;9.388;2023-04-15T05:37:32;97455.06;;;7.91;100.00
34482;BME280;20720;48.886;9.388;2023-04-15T05:39:57;97454.81;;;7.99;100.00
34482;BME280;20720;48.886;9.388;2023-04-15T05:42:23;97447.19;;;7.97;100.00
34482;BME280;20720;48.886;9.388;2023-04-15T05:44:48;97454.03;;;7.98;100.00
34482;BME280;20720;48.886;9.388;2023-04-15T05:47:13;97456.63;;;8.05;100.00
34482;BME280;20720;48.886;9.388;2023-04-15T05:49:39;97458.06;;;7.94;100.00
34482;BME280;20720;48.886;9.388;2023-04-15T05:52:04;97456.03;;;8.03;100.00
34482;BME280;20720;48.886;9.388;2023-04-15T05:54:29;97454.19;;;8.16;100.00
34482;BME280;20720;48.886;9.388;2023-04-15T05:56:55;97463.22;;;8.33;100.00
34482;BME280;20720;48.886;9.388;2023-04-15T05:59:21;97463.97;;;8.53;100.00
34482;BME280;20720;48.886;9.388;2023-04-15T06:01:46;97470.59;;;8.63;100.00
34482;BME280;20720;48.886;9.388;2023-04-15T06:04:12;97468.69;;;8.83;100.00
34482;BME280;20720;48.886;9.388;2023-04-15T06:06:37;97473.59;;;9.35;100.00
34482;BME280;20720;48.886;9.388;2023-04-15T06:09:03;97469.75;;;9.69;100.00
34482;BME280;20720;48.886;9.388;2023-04-15T06:11:29;97472.47;;;9.80;100.00
34482;BME280;20720;48.886;9.388;2023-04-15T06:13:54;97470.00;;;10.28;100.00
34482;BME280;20720;48.886;9.388;2023-04-15T06:16:20;97472.22;;;10.31;100.00
34482;BME280;20720;48.886;9.388;2023-04-15T06:18:47;97468.78;;;10.67;100.00
34482;BME280;20720;48.886;9.388;2023-04-15T06:21:12;97471.09;;;10.75;100.00
34482;BME280;20720;48.886;9.388;2023-04-15T06:23:37;97473.56;;;10.88;100.00
34482;BME280;20720;48.886;9.388;2023-04-15T06:26:05;97474.75;;;10.37;100.00
34482;BME280;20720;48.886;9.388;2023-04-15T06:28:30;97470.94;;;10.88;100.00
34482;BME280;20720;48.886;9.388;2023-04-15T06:30:56;97477.88;;;11.53;99.52
34482;BME280;20720;48.886;9.388;2023-04-15T06:33:21;97472.97;;;10.86;99.76
34482;BME280;20720;48.886;9.388;2023-04-15T06:35:46;97477.28;;;9.59;100.00
34482;BME280;20720;48.886;9.388;2023-04-15T06:38:13;97472.28;;;10.43;100.00
34482;BME280;20720;48.886;9.388;2023-04-15T06:40:39;97474.50;;;11.76;100.00
34482;BME280;20720;48.886;9.388;2023-04-15T06:43:04;97480.56;;;12.46;94.97
34482;BME280;20720;48.886;9.388;2023-04-15T06:45:30;97482.69;;;11.15;98.20
34482;BME280;20720;48.886;9.388;2023-04-15T06:47:56;97479.63;;;11.59;97.43
34482;BME280;20720;48.886;9.388;2023-04-15T06:50:21;97485.16;;;11.39;98.25
34482;BME280;20720;48.886;9.388;2023-04-15T06:52:46;97483.09;;;12.41;92.10
34482;BME280;20720;48.886;9.388;2023-04-15T06:55:12;97479.38;;;12.65;90.73
34482;BME280;20720;48.886;9.388;2023-04-15T06:57:37;97491.47;;;12.89;89.52
34482;BME280;20720;48.886;9.388;2023-04-15T07:00:03;97495.56;;;13.08;87.57
34482;BME280;20720;48.886;9.388;2023-04-15T07:02:29;97485.41;;;13.28;86.81
34482;BME280;20720;48.886;9.388;2023-04-15T07:04:55;97483.13;;;13.48;84.16
34482;BME280;20720;48.886;9.388;2023-04-15T07:07:21;97480.63;;;12.22;88.79
34482;BME280;20720;48.886;9.388;2023-04-15T07:09:46;97483.31;;;11.81;94.54
34482;BME280;20720;48.886;9.388;2023-04-15T07:12:11;97482.53;;;11.39;100.00
34482;BME280;20720;48.886;9.388;2023-04-15T07:14:37;97488.94;;;11.85;97.73
34482;BME280;20720;48.886;9.388;2023-04-15T07:17:02;97486.84;;;12.68;98.66
34482;BME280;20720;48.886;9.388;2023-04-15T07:19:27;97481.66;;;13.41;90.16
34482;BME280;20720;48.886;9.388;2023-04-15T07:21:53;97476.97;;;14.09;83.29
34482;BME280;20720;48.886;9.388;2023-04-15T07:24:18;97481.75;;;14.45;80.57
34482;BME280;20720;48.886;9.388;2023-04-15T07:26:44;97480.41;;;14.64;79.45
34482;BME280;20720;48.886;9.388;2023-04-15T07:29:10;97489.06;;;13.27;83.92
34482;BME280;20720;48.886;9.388;2023-04-15T07:31:36;97484.34;;;13.90;84.54
34482;BME280;20720;48.886;9.388;2023-04-15T07:34:02;97482.81;;;13.78;83.68
34482;BME280;20720;48.886;9.388;2023-04-15T07:36:27;97484.56;;;13.11;87.39
34482;BME280;20720;48.886;9.388;2023-04-15T07:38:53;97483.53;;;14.06;83.33
34482;BME280;20720;48.886;9.388;2023-04-15T07:41:19;97484.66;;;14.87;81.00
34482;BME280;20720;48.886;9.388;2023-04-15T07:43:46;97483.81;;;14.43;78.59
34482;BME280;20720;48.886;9.388;2023-04-15T07:46:11;97481.19;;;14.65;79.53
34482;BME280;20720;48.886;9.388;2023-04-15T07:48:36;97480.84;;;15.79;76.05
34482;BME280;20720;48.886;9.388;2023-04-15T07:51:02;97483.66;;;16.93;68.78
34482;BME280;20720;48.886;9.388;2023-04-15T07:53:27;97481.53;;;16.01;69.32
34482;BME280;20720;48.886;9.388;2023-04-15T07:55:52;97482.75;;;16.67;70.28
34482;BME280;20720;48.886;9.388;2023-04-15T07:58:18;97476.72;;;16.35;67.63
34482;BME280;20720;48.886;9.388;2023-04-15T08:00:43;97473.53;;;15.91;71.85
34482;BME280;20720;48.886;9.388;2023-04-15T08:03:08;97480.88;;;15.31;69.80
34482;BME280;20720;48.886;9.388;2023-04-15T08:05:33;97475.59;;;14.06;76.78
34482;BME280;20720;48.886;9.388;2023-04-15T08:07:59;97474.59;;;15.37;74.77
34482;BME280;20720;48.886;9.388;2023-04-15T08:10:25;97476.47;;;15.95;70.21
34482;BME280;20720;48.886;9.388;2023-04-15T08:12:50;97467.47;;;16.43;66.80
34482;BME280;20720;48.886;9.388;2023-04-15T08:15:19;97468.63;;;17.24;64.36
34482;BME280;20720;48.886;9.388;2023-04-15T08:17:44;97465.06;;;18.89;60.18
34482;BME280;20720;48.886;9.388;2023-04-15T08:20:09;97460.53;;;19.43;57.19
34482;BME280;20720;48.886;9.388;2023-04-15T08:22:35;97464.22;;;17.84;62.53
34482;BME280;20720;48.886;9.388;2023-04-15T08:25:01;97465.78;;;18.06;62.81
34482;BME280;20720;48.886;9.388;2023-04-15T08:27:26;97469.41;;;17.24;66.56
34482;BME280;20720;48.886;9.388;2023-04-15T08:29:51;97473.31;;;18.88;61.29
34482;BME280;20720;48.886;9.388;2023-04-15T08:32:17;97473.22;;;17.73;64.06
34482;BME280;20720;48.886;9.388;2023-04-15T08:34:43;97483.38;;;19.88;58.42
34482;BME280;20720;48.886;9.388;2023-04-15T08:37:08;97476.50;;;20.68;55.91
34482;BME280;20720;48.886;9.388;2023-04-15T08:39:34;97478.81;;;19.11;59.07
34482;BME280;20720;48.886;9.388;2023-04-15T08:42:00;97482.34;;;19.84;57.13
34482;BME280;20720;48.886;9.388;2023-04-15T08:44:28;97479.81;;;19.69;57.21
34482;BME280;20720;48.886;9.388;2023-04-15T08:46:56;97469.66;;;18.68;58.28
34482;BME280;20720;48.886;9.388;2023-04-15T08:49:25;97465.59;;;18.86;59.18
34482;BME280;20720;48.886;9.388;2023-04-15T08:51:51;97477.47;;;19.57;58.25
34482;BME280;20720;48.886;9.388;2023-04-15T08:54:17;97480.16;;;19.91;56.40
34482;BME280;20720;48.886;9.388;2023-04-15T08:56:43;97474.25;;;20.28;55.75
34482;BME280;20720;48.886;9.388;2023-04-15T08:59:09;97466.16;;;20.09;54.55
34482;BME280;20720;48.886;9.388;2023-04-15T09:01:36;97478.28;;;19.58;57.33
34482;BME280;20720;48.886;9.388;2023-04-15T09:04:02;97473.63;;;19.35;58.28
34482;BME280;20720;48.886;9.388;2023-04-15T09:06:30;97477.06;;;19.79;55.90
34482;BME280;20720;48.886;9.388;2023-04-15T09:08:56;97471.75;;;20.08;54.98
34482;BME280;20720;48.886;9.388;2023-04-15T09:11:21;97477.28;;;16.94;60.78
34482;BME280;20720;48.886;9.388;2023-04-15T09:13:48;97476.25;;;18.86;60.64
34482;BME280;20720;48.886;9.388;2023-04-15T09:16:13;97480.81;;;19.39;55.98
34482;BME280;20720;48.886;9.388;2023-04-15T09:18:39;97480.91;;;19.97;56.44
34482;BME280;20720;48.886;9.388;2023-04-15T09:23:31;97485.22;;;20.97;54.78
34482;BME280;20720;48.886;9.388;2023-04-15T09:25:57;97483.41;;;21.16;54.19
34482;BME280;20720;48.886;9.388;2023-04-15T09:28:25;97487.09;;;21.20;53.77
34482;BME280;20720;48.886;9.388;2023-04-15T09:30:54;97490.50;;;22.00;52.22
34482;BME280;20720;48.886;9.388;2023-04-15T09:33:20;97494.44;;;20.86;53.61
34482;BME280;20720;48.886;9.388;2023-04-15T09:36:04;97484.22;;;21.54;53.49
34482;BME280;20720;48.886;9.388;2023-04-15T09:38:31;97488.06;;;21.67;49.11
34482;BME280;20720;48.886;9.388;2023-04-15T09:40:57;97486.66;;;19.80;54.46
34482;BME280;20720;48.886;9.388;2023-04-15T09:43:37;97494.97;;;22.05;49.64
34482;BME280;20720;48.886;9.388;2023-04-15T09:46:03;97488.50;;;22.38;49.15
34482;BME280;20720;48.886;9.388;2023-04-15T09:48:28;97488.69;;;23.64;47.15
34482;BME280;20720;48.886;9.388;2023-04-15T09:50:58;97489.53;;;23.23;47.24
34482;BME280;20720;48.886;9.388;2023-04-15T09:53:24;97489.50;;;25.09;43.96
34482;BME280;20720;48.886;9.388;2023-04-15T09:55:52;97480.34;;;24.09;44.63
34482;BME280;20720;48.886;9.388;2023-04-15T09:58:29;97488.13;;;24.72;44.36
34482;BME280;20720;48.886;9.388;2023-04-15T10:00:56;97492.59;;;25.76;41.92
34482;BME280;20720;48.886;9.388;2023-04-15T10:03:24;97473.31;;;24.53;40.67
34482;BME280;20720;48.886;9.388;2023-04-15T10:05:52;97482.56;;;23.22;45.27
34482;BME280;20720;48.886;9.388;2023-04-15T10:08:20;97479.38;;;23.48;44.37
34482;BME280;20720;48.886;9.388;2023-04-15T10:10:46;97485.22;;;23.50;43.70
34482;BME280;20720;48.886;9.388;2023-04-15T10:13:13;97486.34;;;23.49;43.88
34482;BME280;20720;48.886;9.388;2023-04-15T10:15:43;97485.38;;;22.90;45.87
34482;BME280;20720;48.886;9.388;2023-04-15T10:18:10;97486.78;;;22.74;44.35
34482;BME280;20720;48.886;9.388;2023-04-15T10:20:35;97492.28;;;23.46;42.77
34482;BME280;20720;48.886;9.388;2023-04-15T10:23:01;97491.53;;;23.67;41.57
34482;BME280;20720;48.886;9.388;2023-04-15T10:25:27;97493.88;;;24.96;39.39
34482;BME280;20720;48.886;9.388;2023-04-15T10:27:53;97489.69;;;24.43;39.87
34482;BME280;20720;48.886;9.388;2023-04-15T10:30:19;97496.78;;;23.72;41.49
34482;BME280;20720;48.886;9.388;2023-04-15T10:32:44;97498.13;;;22.39;43.60
34482;BME280;20720;48.886;9.388;2023-04-15T10:35:10;97495.13;;;23.63;42.17
34482;BME280;20720;48.886;9.388;2023-04-15T10:37:37;97506.06;;;24.63;40.89
34482;BME280;20720;48.886;9.388;2023-04-15T10:40:31;97509.78;;;25.24;40.37
34482;BME280;20720;48.886;9.388;2023-04-15T10:42:58;97498.75;;;24.77;40.25
34482;BME280;20720;48.886;9.388;2023-04-15T10:45:26;97498.84;;;24.42;40.43
34482;BME280;20720;48.886;9.388;2023-04-15T10:47:56;97512.78;;;23.99;40.62
34482;BME280;20720;48.886;9.388;2023-04-15T10:50:24;97500.09;;;22.79;43.18
34482;BME280;20720;48.886;9.388;2023-04-15T10:52:50;97504.38;;;23.57;42.21
34482;BME280;20720;48.886;9.388;2023-04-15T10:55:22;97506.75;;;24.16;41.92
34482;BME280;20720;48.886;9.388;2023-04-15T10:57:51;97511.38;;;24.46;41.50
34482;BME280;20720;48.886;9.388;2023-04-15T11:00:18;97501.84;;;23.24;42.08
34482;BME280;20720;48.886;9.388;2023-04-15T11:02:51;97505.31;;;23.96;40.21
34482;BME280;20720;48.886;9.388;2023-04-15T11:05:18;97512.47;;;24.45;39.06
34482;BME280;20720;48.886;9.388;2023-04-15T11:12:42;97506.22;;;23.20;42.85
34482;BME280;20720;48.886;9.388;2023-04-15T11:17:51;97498.66;;;23.72;40.91
34482;BME280;20720;48.886;9.388;2023-04-15T11:20:17;97498.13;;;22.07;43.05
34482;BME280;20720;48.886;9.388;2023-04-15T11:22:47;97498.44;;;22.51;43.31
34482;BME280;20720;48.886;9.388;2023-04-15T11:25:22;97517.31;;;21.77;43.62
34482;BME280;20720;48.886;9.388;2023-04-15T11:27:47;97515.59;;;21.48;44.58
34482;BME280;20720;48.886;9.388;2023-04-15T11:30:18;97515.44;;;21.96;43.24
34482;BME280;20720;48.886;9.388;2023-04-15T11:32:45;97522.88;;;21.24;43.59
34482;BME280;20720;48.886;9.388;2023-04-15T11:35:10;97521.75;;;21.86;43.97
34482;BME280;20720;48.886;9.388;2023-04-15T11:37:35;97520.88;;;21.91;45.26
34482;BME280;20720;48.886;9.388;2023-04-15T11:40:02;97528.66;;;21.31;45.08
34482;BME280;20720;48.886;9.388;2023-04-15T11:42:27;97521.72;;;19.58;48.45
34482;BME280;20720;48.886;9.388;2023-04-15T11:45:06;97524.78;;;19.81;49.42
34482;BME280;20720;48.886;9.388;2023-04-15T11:47:31;97526.97;;;21.17;46.87
34482;BME280;20720;48.886;9.388;2023-04-15T11:49:56;97533.97;;;19.59;51.09
34482;BME280;20720;48.886;9.388;2023-04-15T11:52:22;97532.16;;;18.86;49.71
34482;BME280;20720;48.886;9.388;2023-04-15T11:54:49;97531.59;;;19.58;51.63
34482;BME280;20720;48.886;9.388;2023-04-15T11:57:15;97532.13;;;20.32;48.89
34482;BME280;20720;48.886;9.388;2023-04-15T11:59:42;97541.78;;;20.28;48.90
34482;BME280;20720;48.886;9.388;2023-04-15T12:02:11;97552.38;;;20.00;49.12
34482;BME280;20720;48.886;9.388;2023-04-15T12:04:37;97543.19;;;19.28;51.09
34482;BME280;20720;48.886;9.388;2023-04-15T12:07:06;97543.00;;;19.63;51.67
34482;BME280;20720;48.886;9.388;2023-04-15T12:09:36;97548.44;;;19.92;50.63
34482;BME280;20720;48.886;9.388;2023-04-15T12:12:02;97550.25;;;17.58;57.07
34482;BME280;20720;48.886;9.388;2023-04-15T12:14:28;97550.84;;;18.06;56.53
34482;BME280;20720;48.886;9.388;2023-04-15T12:17:04;97555.63;;;18.39;55.01
34482;BME280;20720;48.886;9.388;2023-04-15T12:19:37;97552.84;;;19.09;53.92
34482;BME280;20720;48.886;9.388;2023-04-15T12:22:03;97558.31;;;18.54;49.83
34482;BME280;20720;48.886;9.388;2023-04-15T12:24:31;97568.41;;;17.92;49.53
34482;BME280;20720;48.886;9.388;2023-04-15T12:27:01;97561.22;;;18.27;49.76
34482;BME280;20720;48.886;9.388;2023-04-15T12:29:28;97575.88;;;18.45;50.73
34482;BME280;20720;48.886;9.388;2023-04-15T12:31:56;97580.72;;;17.36;52.61
34482;BME280;20720;48.886;9.388;2023-04-15T12:34:29;97595.72;;;17.67;51.49
34482;BME280;20720;48.886;9.388;2023-04-15T12:36:55;97593.41;;;17.96;49.76
34482;BME280;20720;48.886;9.388;2023-04-15T12:39:26;97596.34;;;18.24;47.65
34482;BME280;20720;48.886;9.388;2023-04-15T12:41:53;97607.22;;;18.08;46.41
34482;BME280;20720;48.886;9.388;2023-04-15T12:44:19;97616.28;;;18.02;47.42
34482;BME280;20720;48.886;9.388;2023-04-15T12:46:45;97615.75;;;18.00;46.00
34482;BME280;20720;48.886;9.388;2023-04-15T12:49:13;97626.91;;;18.27;45.69
34482;BME280;20720;48.886;9.388;2023-04-15T12:51:40;97638.03;;;17.99;46.17
34482;BME280;20720;48.886;9.388;2023-04-15T12:54:05;97632.19;;;17.30;46.61
34482;BME280;20720;48.886;9.388;2023-04-15T12:56:30;97637.69;;;17.13;44.84
34482;BME280;20720;48.886;9.388;2023-04-15T12:58:56;97637.41;;;17.61;45.51
34482;BME280;20720;48.886;9.388;2023-04-15T13:01:21;97647.28;;;17.19;44.90
34482;BME280;20720;48.886;9.388;2023-04-15T13:03:49;97644.97;;;18.10;43.58
34482;BME280;20720;48.886;9.388;2023-04-15T13:06:15;97635.84;;;17.75;43.76